الصفحة الرئيسية
METAR-TAF:

METAR-TAF

مطار :

Sitiawan, ماليزيا

دائرة عرض: 04-13N, خط طول: 100-42E, ارتفاع: 7 متر

مراقبة الطقس الحالي

تاريخ ووقت الإصدار 1ساعة و 4 دقيقة قبل الساعة 21:00UTC
ريح 2 عقدةمن اتجاهات متغيرة
درجة الحرارة 26°درجة مئوية
الرطوبة 89%
ضغط 1008 hPa
الرؤية: 9000 متر
غيوم متفرقة على ارتفاع 3000 قدم

METAR: WMBA 022100Z VRB02KT 9000 SCT030 26/24 Q1008

زمن: 06:04 (22:04 UTC)


TAF: مفقودة

أرصاد الطقس والتوقعات من أكثر من 4000 مطار (تقارير الطقس للمطار METAR والتنبؤ بالطقس بالمطارTAF).

المحطات المتاحة هي النقط الصفراء والحمراء على الخريطة.

حرك المؤشر فوق النقطة لمعرفة اسم المحطة.

ثم انقر لمعرفة أرصاد وتوقعات الطقس.

لتغيير الخارطة: اضغط على الأزرار الخضراء مع رمز الصليب الأسود للتكبير. على الزر الأخضر مع شرطة للتصغير، أو على الأسهم الخضراء للخرائط المجاورة.


METAR-TAF: